Time;durP1;ratioP1;P1;durP2;ratioP2;P2;SDS_P1;SDS_P2;PMS_P1;PMS_P2;Temp;Humidity;BMP_temperature;BMP_pressure;BME280_temperature;BME280_humidity;BME280_pressure;Samples;Min_cycle;Max_cycle;Signal;HPM_P1;HPM_P2
2022/07/07 00:01:15;;;;;;;;;;;16.90;99.90;;;;;;5014618;28;19987;-81
2022/07/07 00:03:41;;;;;;;;;;;16.90;99.90;;;;;;5000283;28;19933;-81
2022/07/07 00:06:07;;;;;;;;;;;17.00;99.90;;;;;;5013687;28;19928;-81
2022/07/07 00:08:32;;;;;;;;;;;16.90;99.90;;;;;;5011679;28;20896;-82
2022/07/07 00:10:58;;;;;;;;;;;17.00;99.90;;;;;;5014329;28;20750;-81
2022/07/07 00:13:24;;;;;;;;;;;17.00;99.90;;;;;;5025088;28;20566;-82
2022/07/07 00:15:50;;;;;;;;;;;17.10;99.90;;;;;;5015639;28;19929;-82
2022/07/07 00:18:16;;;;;;;;;;;17.10;99.90;;;;;;5018939;28;19936;-82
2022/07/07 00:20:41;;;;;;;;;;;17.10;99.90;;;;;;5016473;28;19940;-82
2022/07/07 00:23:07;;;;;;;;;;;17.10;99.90;;;;;;5003243;28;19929;-81
2022/07/07 00:25:33;;;;;;;;;;;17.10;99.90;;;;;;5010353;28;20542;-82
2022/07/07 00:27:58;;;;;;;;;;;17.10;99.90;;;;;;5018404;28;19929;-81
2022/07/07 00:30:24;;;;;;;;;;;17.20;99.90;;;;;;5019325;28;19979;-81
2022/07/07 00:32:50;;;;;;;;;;;17.20;99.90;;;;;;5014218;28;20310;-81
2022/07/07 00:35:15;;;;;;;;;;;17.20;99.90;;;;;;5013463;28;19936;-82
2022/07/07 00:37:41;;;;;;;;;;;17.10;99.90;;;;;;4992419;28;20478;-82
2022/07/07 00:40:07;;;;;;;;;;;17.10;99.90;;;;;;5001982;28;19933;-82
2022/07/07 00:42:33;;;;;;;;;;;17.10;99.90;;;;;;5014436;28;19936;-83
2022/07/07 00:44:59;;;;;;;;;;;17.00;99.90;;;;;;5016583;28;19929;-82
2022/07/07 00:47:24;;;;;;;;;;;17.00;99.90;;;;;;5013561;28;19938;-81
2022/07/07 00:49:50;;;;;;;;;;;17.00;99.90;;;;;;5021550;28;19931;-81
2022/07/07 00:52:16;;;;;;;;;;;17.00;99.90;;;;;;5016442;28;19933;-84
2022/07/07 00:54:49;;;;;;;;;;;17.00;99.90;;;;;;5018924;28;19935;-84
2022/07/07 00:57:15;;;;;;;;;;;16.90;99.90;;;;;;5019307;28;19936;-82
2022/07/07 00:59:41;;;;;;;;;;;16.90;99.90;;;;;;5015793;28;19933;-82
2022/07/07 01:02:06;;;;;;;;;;;17.00;99.90;;;;;;5012409;28;19940;-83
2022/07/07 01:04:32;;;;;;;;;;;16.90;99.90;;;;;;5012979;28;19998;-80
2022/07/07 01:06:58;;;;;;;;;;;16.90;99.90;;;;;;5018965;28;19929;-81
2022/07/07 01:09:24;;;;;;;;;;;16.90;99.90;;;;;;5014711;28;19933;-82
2022/07/07 01:11:52;;;;;;;;;;;17.00;99.90;;;;;;5017139;28;19929;-81
2022/07/07 01:14:18;;;;;;;;;;;16.90;99.90;;;;;;5016919;28;19932;-81
2022/07/07 01:16:44;;;;;;;;;;;17.00;99.90;;;;;;5021700;28;20382;-82
2022/07/07 01:19:10;;;;;;;;;;;16.80;99.90;;;;;;5019513;28;19936;-81
2022/07/07 01:21:44;;;;;;;;;;;16.90;99.90;;;;;;5017103;28;19936;-81
2022/07/07 01:24:09;;;;;;;;;;;16.90;99.90;;;;;;5017371;28;19935;-82
2022/07/07 01:30:43;;;;;;;;;;;16.80;99.90;;;;;;5018541;28;19964;-83
2022/07/07 01:33:09;;;;;;;;;;;16.80;99.90;;;;;;5010866;28;20493;-82
2022/07/07 01:35:34;;;;;;;;;;;16.80;99.90;;;;;;5013832;28;19928;-82
2022/07/07 01:38:00;;;;;;;;;;;16.80;99.90;;;;;;4996884;28;19956;-82
2022/07/07 01:40:26;;;;;;;;;;;16.90;99.90;;;;;;5009830;28;19925;-81
2022/07/07 01:42:51;;;;;;;;;;;16.80;99.90;;;;;;5012676;28;20170;-83
2022/07/07 01:45:17;;;;;;;;;;;16.80;99.90;;;;;;5013901;28;19974;-81
2022/07/07 01:47:43;;;;;;;;;;;16.80;99.90;;;;;;5016271;28;19928;-82
2022/07/07 01:50:09;;;;;;;;;;;16.80;99.90;;;;;;5016888;28;20019;-83
2022/07/07 01:52:36;;;;;;;;;;;16.80;99.90;;;;;;4997921;28;19936;-82
2022/07/07 01:55:02;;;;;;;;;;;16.80;99.90;;;;;;5008743;28;19983;-81
2022/07/07 01:57:28;;;;;;;;;;;16.80;99.90;;;;;;5013217;28;20252;-81
2022/07/07 02:00:12;;;;;;;;;;;16.80;99.90;;;;;;5012255;28;20556;-81
2022/07/07 02:02:38;;;;;;;;;;;16.80;99.90;;;;;;5016459;28;19929;-81
2022/07/07 02:05:04;;;;;;;;;;;16.90;99.90;;;;;;5012951;28;19929;-82
2022/07/07 02:07:29;;;;;;;;;;;16.90;99.90;;;;;;5009940;28;19929;-82
2022/07/07 02:09:55;;;;;;;;;;;16.80;99.90;;;;;;5009271;28;20603;-84
2022/07/07 02:12:21;;;;;;;;;;;16.90;99.90;;;;;;5012491;28;19971;-82
2022/07/07 02:14:47;;;;;;;;;;;16.90;99.90;;;;;;5019877;28;19955;-83
2022/07/07 02:17:12;;;;;;;;;;;16.90;99.90;;;;;;5011444;28;20372;-83
2022/07/07 02:19:38;;;;;;;;;;;16.80;99.90;;;;;;4999213;28;20424;-85
2022/07/07 02:22:04;;;;;;;;;;;16.90;99.90;;;;;;5007885;28;19976;-83
2022/07/07 02:24:29;;;;;;;;;;;16.80;99.90;;;;;;5011524;28;19929;-85
2022/07/07 02:26:55;;;;;;;;;;;16.90;99.90;;;;;;5014518;28;19928;-85
2022/07/07 02:29:21;;;;;;;;;;;16.80;99.90;;;;;;5009882;28;20465;-85
2022/07/07 02:31:47;;;;;;;;;;;16.80;99.90;;;;;;5016334;28;19951;-86
2022/07/07 02:34:12;;;;;;;;;;;16.80;99.90;;;;;;4994482;28;21624;-86
2022/07/07 02:36:38;;;;;;;;;;;16.80;99.90;;;;;;5008434;28;19996;-86
2022/07/07 02:39:04;;;;;;;;;;;16.70;99.90;;;;;;4979115;28;20353;-86
2022/07/07 02:41:29;;;;;;;;;;;16.70;99.90;;;;;;4995919;28;19996;-86
2022/07/07 02:43:55;;;;;;;;;;;16.70;99.90;;;;;;5012186;28;20378;-86
2022/07/07 02:46:21;;;;;;;;;;;16.70;99.90;;;;;;4995882;28;19929;-87
2022/07/07 02:48:47;;;;;;;;;;;16.70;99.90;;;;;;4992558;28;19929;-87
2022/07/07 02:51:13;;;;;;;;;;;16.70;99.90;;;;;;5004603;28;20181;-92
2022/07/07 02:53:39;;;;;;;;;;;16.70;99.90;;;;;;5015723;28;19932;-89
2022/07/07 02:56:05;;;;;;;;;;;16.60;99.90;;;;;;4978740;28;20313;-88
2022/07/07 02:58:31;;;;;;;;;;;16.70;99.90;;;;;;4995069;28;20333;-90
2022/07/07 03:00:57;;;;;;;;;;;16.60;99.90;;;;;;4992351;28;19929;-91
2022/07/07 03:03:22;;;;;;;;;;;16.70;99.90;;;;;;5007104;28;19988;-87
2022/07/07 03:05:48;;;;;;;;;;;16.70;99.90;;;;;;4983219;28;20053;-89
2022/07/07 03:08:20;;;;;;;;;;;16.60;99.90;;;;;;4997531;28;19932;-93
2022/07/07 03:10:49;;;;;;;;;;;16.70;99.90;;;;;;5004937;28;19951;-93
2022/07/07 03:13:17;;;;;;;;;;;16.70;99.90;;;;;;4984025;28;19928;-91
2022/07/07 03:15:42;;;;;;;;;;;16.60;99.90;;;;;;4995620;28;20405;-88
2022/07/07 03:18:08;;;;;;;;;;;16.70;99.90;;;;;;4981078;28;19932;-89
2022/07/07 03:20:34;;;;;;;;;;;16.70;99.90;;;;;;5000975;28;19929;-87
2022/07/07 03:23:00;;;;;;;;;;;16.70;99.90;;;;;;5006924;28;19928;-87
2022/07/07 03:25:28;;;;;;;;;;;16.70;99.90;;;;;;5024024;28;19925;-88
2022/07/07 03:27:55;;;;;;;;;;;16.60;99.90;;;;;;5006012;28;20425;-90
2022/07/07 03:30:21;;;;;;;;;;;16.60;99.90;;;;;;4991174;28;20477;-95
2022/07/07 03:32:47;;;;;;;;;;;16.60;99.90;;;;;;5003638;28;19929;-90
2022/07/07 03:35:13;;;;;;;;;;;16.60;99.90;;;;;;5000117;28;19929;-87
2022/07/07 03:37:38;;;;;;;;;;;16.60;99.90;;;;;;5004469;28;20393;-88
2022/07/07 03:40:05;;;;;;;;;;;16.50;99.90;;;;;;5002491;28;19929;-89
2022/07/07 03:42:31;;;;;;;;;;;16.70;99.90;;;;;;5020941;28;20612;-89
2022/07/07 03:44:56;;;;;;;;;;;16.70;99.90;;;;;;5022720;28;20051;-87
2022/07/07 03:47:22;;;;;;;;;;;16.70;99.90;;;;;;5000313;28;19956;-88
2022/07/07 03:49:50;;;;;;;;;;;16.50;99.90;;;;;;5018160;28;20023;-88
2022/07/07 03:52:16;;;;;;;;;;;16.60;99.90;;;;;;5003033;28;20024;-88
2022/07/07 03:54:42;;;;;;;;;;;16.50;99.90;;;;;;4997808;28;20429;-86
2022/07/07 03:57:08;;;;;;;;;;;16.60;99.90;;;;;;4994368;28;19929;-90
2022/07/07 03:59:33;;;;;;;;;;;16.60;99.90;;;;;;5014537;28;20673;-85
2022/07/07 04:01:59;;;;;;;;;;;16.60;99.90;;;;;;5020936;28;19960;-85
2022/07/07 04:04:25;;;;;;;;;;;16.60;99.90;;;;;;4977654;28;20383;-86
2022/07/07 04:06:50;;;;;;;;;;;16.60;99.90;;;;;;4997324;28;19932;-87
2022/07/07 04:09:16;;;;;;;;;;;16.60;99.90;;;;;;5014454;28;20680;-87
2022/07/07 04:11:42;;;;;;;;;;;16.60;99.90;;;;;;5004674;28;20301;-85
2022/07/07 04:14:07;;;;;;;;;;;16.60;99.90;;;;;;4999614;28;19925;-87
2022/07/07 04:16:33;;;;;;;;;;;16.60;99.90;;;;;;5018237;28;19964;-86
2022/07/07 04:18:59;;;;;;;;;;;16.60;99.90;;;;;;5006581;28;19964;-85
2022/07/07 04:21:24;;;;;;;;;;;16.50;99.90;;;;;;5018222;28;19935;-86
2022/07/07 04:23:50;;;;;;;;;;;16.50;99.90;;;;;;5002906;28;19987;-87
2022/07/07 04:26:16;;;;;;;;;;;16.60;99.90;;;;;;5000205;28;22527;-90
2022/07/07 04:28:41;;;;;;;;;;;16.60;99.90;;;;;;5003637;28;20661;-86
2022/07/07 04:31:07;;;;;;;;;;;16.50;99.90;;;;;;4986695;28;19929;-86
2022/07/07 04:33:33;;;;;;;;;;;16.60;99.90;;;;;;5000504;28;19928;-87
2022/07/07 04:35:59;;;;;;;;;;;16.40;99.90;;;;;;5000271;28;19936;-89
2022/07/07 04:38:24;;;;;;;;;;;16.50;99.90;;;;;;4992298;28;20290;-87
2022/07/07 04:40:50;;;;;;;;;;;16.50;99.90;;;;;;4999953;28;19929;-87
2022/07/07 04:43:16;;;;;;;;;;;16.50;99.90;;;;;;5015552;28;19933;-84
2022/07/07 04:45:42;;;;;;;;;;;16.50;99.90;;;;;;5014956;28;22049;-85
2022/07/07 04:48:08;;;;;;;;;;;16.50;99.90;;;;;;5016966;28;19933;-84
2022/07/07 04:50:33;;;;;;;;;;;16.50;99.90;;;;;;5009943;28;19925;-84
2022/07/07 04:52:59;;;;;;;;;;;16.60;99.90;;;;;;5020245;28;19936;-85
2022/07/07 04:55:25;;;;;;;;;;;16.60;99.90;;;;;;5008325;28;19955;-87
2022/07/07 04:57:50;;;;;;;;;;;16.60;99.90;;;;;;4980651;28;20808;-86
2022/07/07 05:00:16;;;;;;;;;;;16.60;99.90;;;;;;5000307;28;20119;-82
2022/07/07 05:02:42;;;;;;;;;;;16.50;99.90;;;;;;5012886;28;19944;-87
2022/07/07 05:05:08;;;;;;;;;;;16.50;99.90;;;;;;4982019;28;19933;-91
2022/07/07 05:07:34;;;;;;;;;;;16.30;99.90;;;;;;4994800;28;20609;-87
2022/07/07 05:10:00;;;;;;;;;;;16.20;99.90;;;;;;4999768;28;19929;-86
2022/07/07 05:12:25;;;;;;;;;;;16.30;99.90;;;;;;5014075;28;19990;-87
2022/07/07 05:14:51;;;;;;;;;;;16.10;99.90;;;;;;5019116;28;20329;-88
2022/07/07 05:17:17;;;;;;;;;;;16.10;99.90;;;;;;5015023;28;20125;-86
2022/07/07 05:19:43;;;;;;;;;;;16.20;99.90;;;;;;5013889;28;19929;-90
2022/07/07 05:22:08;;;;;;;;;;;16.20;99.90;;;;;;5015030;28;20456;-88
2022/07/07 05:24:35;;;;;;;;;;;16.30;99.90;;;;;;5018360;28;19972;-84
2022/07/07 05:27:01;;;;;;;;;;;16.40;99.90;;;;;;5019388;28;19936;-86
2022/07/07 05:29:27;;;;;;;;;;;16.40;99.90;;;;;;5015116;28;19930;-86
2022/07/07 05:31:52;;;;;;;;;;;16.40;99.90;;;;;;5034312;28;20196;-87
2022/07/07 05:34:18;;;;;;;;;;;16.40;99.90;;;;;;4967878;28;20555;-86
2022/07/07 05:36:44;;;;;;;;;;;16.40;99.90;;;;;;5005627;28;20036;-84
2022/07/07 05:39:13;;;;;;;;;;;16.40;99.90;;;;;;5004310;28;20114;-84
2022/07/07 05:41:39;;;;;;;;;;;16.40;99.90;;;;;;4982811;28;19940;-87
2022/07/07 05:44:05;;;;;;;;;;;16.40;99.90;;;;;;4987353;28;19929;-87
2022/07/07 05:46:30;;;;;;;;;;;16.50;99.90;;;;;;5003284;28;20833;-85
2022/07/07 05:48:56;;;;;;;;;;;16.40;99.90;;;;;;4982279;28;20028;-84
2022/07/07 05:51:22;;;;;;;;;;;16.40;99.90;;;;;;5002179;28;19929;-84
2022/07/07 05:53:47;;;;;;;;;;;16.50;99.90;;;;;;4986291;28;19943;-85
2022/07/07 05:56:13;;;;;;;;;;;16.50;99.90;;;;;;4981064;28;19928;-84
2022/07/07 05:58:40;;;;;;;;;;;16.50;99.90;;;;;;5002694;28;20885;-83
2022/07/07 06:01:05;;;;;;;;;;;16.60;99.90;;;;;;5006541;28;19956;-83
2022/07/07 06:03:31;;;;;;;;;;;16.70;99.90;;;;;;5006290;28;19929;-83
2022/07/07 06:05:57;;;;;;;;;;;17.20;99.90;;;;;;4988410;28;20008;-83
2022/07/07 06:08:22;;;;;;;;;;;17.70;99.90;;;;;;5003954;28;19929;-83
2022/07/07 06:10:48;;;;;;;;;;;18.00;99.90;;;;;;5003395;28;19964;-86
2022/07/07 06:13:14;;;;;;;;;;;18.00;99.90;;;;;;5002008;28;19929;-83
2022/07/07 06:15:39;;;;;;;;;;;18.50;99.90;;;;;;5007133;28;20845;-83
2022/07/07 06:18:05;;;;;;;;;;;18.50;99.90;;;;;;4999548;28;20056;-83
2022/07/07 06:20:31;;;;;;;;;;;19.00;99.90;;;;;;5005237;28;19948;-85
2022/07/07 06:22:57;;;;;;;;;;;18.80;99.90;;;;;;5004328;28;20294;-82
2022/07/07 06:25:23;;;;;;;;;;;19.10;99.90;;;;;;5020288;28;19936;-84
2022/07/07 06:27:49;;;;;;;;;;;19.30;99.90;;;;;;4993764;28;19956;-81
2022/07/07 06:30:15;;;;;;;;;;;19.10;99.90;;;;;;5015695;28;19933;-83
2022/07/07 06:32:41;;;;;;;;;;;19.20;99.90;;;;;;5016793;28;19929;-83
2022/07/07 06:35:06;;;;;;;;;;;19.10;99.90;;;;;;5001995;28;19935;-82
2022/07/07 06:37:33;;;;;;;;;;;18.70;99.90;;;;;;5014519;28;19929;-83
2022/07/07 06:39:59;;;;;;;;;;;18.70;99.90;;;;;;5019606;28;20118;-83
2022/07/07 06:42:25;;;;;;;;;;;18.20;99.90;;;;;;5021560;28;19928;-82
2022/07/07 06:44:51;;;;;;;;;;;18.20;99.90;;;;;;5020776;28;19929;-83
2022/07/07 06:47:16;;;;;;;;;;;18.00;99.90;;;;;;5019309;28;20011;-84
2022/07/07 06:49:42;;;;;;;;;;;17.70;99.90;;;;;;5022393;28;19929;-83
2022/07/07 06:52:08;;;;;;;;;;;17.60;99.90;;;;;;5022183;28;20880;-83
2022/07/07 06:54:34;;;;;;;;;;;17.70;99.90;;;;;;5007462;28;19929;-84
2022/07/07 06:56:59;;;;;;;;;;;17.90;99.90;;;;;;5020854;28;20390;-84
2022/07/07 06:59:25;;;;;;;;;;;17.90;99.90;;;;;;5023633;28;19933;-84
2022/07/07 07:01:51;;;;;;;;;;;18.00;99.90;;;;;;5006689;28;19933;-82
2022/07/07 07:04:16;;;;;;;;;;;17.90;99.90;;;;;;5019234;28;19935;-82
2022/07/07 07:06:42;;;;;;;;;;;17.90;99.90;;;;;;5016385;28;19972;-83
2022/07/07 07:09:08;;;;;;;;;;;18.00;99.90;;;;;;5024255;28;19929;-82
2022/07/07 07:11:34;;;;;;;;;;;18.30;99.90;;;;;;5021989;28;19929;-83
2022/07/07 07:14:02;;;;;;;;;;;18.20;99.90;;;;;;5019101;28;20338;-82
2022/07/07 07:16:28;;;;;;;;;;;18.40;99.90;;;;;;5019954;28;19929;-82
2022/07/07 07:18:54;;;;;;;;;;;18.60;99.90;;;;;;5019117;28;19933;-82
2022/07/07 07:21:20;;;;;;;;;;;18.80;99.90;;;;;;5009720;28;19929;-82
2022/07/07 07:23:45;;;;;;;;;;;18.80;99.90;;;;;;5023269;28;19929;-83
2022/07/07 07:26:11;;;;;;;;;;;18.70;99.90;;;;;;5024123;28;19929;-83
2022/07/07 07:28:37;;;;;;;;;;;18.40;99.90;;;;;;5018581;28;19936;-83
2022/07/07 07:31:03;;;;;;;;;;;17.90;99.90;;;;;;5018558;28;19932;-83
2022/07/07 07:33:29;;;;;;;;;;;17.60;99.90;;;;;;5024448;28;20386;-84
2022/07/07 07:35:55;;;;;;;;;;;17.20;99.90;;;;;;5025343;28;19935;-86
2022/07/07 07:38:21;;;;;;;;;;;16.80;99.90;;;;;;5024155;28;19963;-86
2022/07/07 07:40:46;;;;;;;;;;;17.00;99.90;;;;;;5006552;28;20382;-85
2022/07/07 07:43:12;;;;;;;;;;;17.10;99.90;;;;;;5006482;28;19929;-86
2022/07/07 07:45:38;;;;;;;;;;;17.50;99.90;;;;;;4998412;28;19929;-86
2022/07/07 07:48:04;;;;;;;;;;;17.90;99.90;;;;;;5020288;28;19929;-83
2022/07/07 07:50:30;;;;;;;;;;;18.10;99.90;;;;;;5024161;28;20494;-82
2022/07/07 07:52:57;;;;;;;;;;;17.90;99.90;;;;;;5020758;28;19928;-84
2022/07/07 07:55:23;;;;;;;;;;;18.20;99.90;;;;;;5039585;28;20213;-84
2022/07/07 07:57:49;;;;;;;;;;;18.40;99.90;;;;;;5023365;28;19936;-85
2022/07/07 08:00:16;;;;;;;;;;;18.20;99.90;;;;;;5019398;28;20758;-82
2022/07/07 08:02:41;;;;;;;;;;;18.60;99.90;;;;;;5021128;28;19995;-82
2022/07/07 08:05:07;;;;;;;;;;;19.10;99.90;;;;;;5007107;28;19929;-83
2022/07/07 08:07:33;;;;;;;;;;;18.90;99.90;;;;;;5015264;28;19964;-84
2022/07/07 08:10:02;;;;;;;;;;;19.00;99.90;;;;;;5015174;28;20031;-84
2022/07/07 08:12:28;;;;;;;;;;;19.00;99.90;;;;;;5015741;28;19929;-83
2022/07/07 08:14:54;;;;;;;;;;;19.00;99.90;;;;;;5022659;28;19929;-86
2022/07/07 08:17:20;;;;;;;;;;;18.60;99.90;;;;;;5024402;28;19933;-83
2022/07/07 08:19:45;;;;;;;;;;;18.90;99.90;;;;;;5024759;28;19929;-82
2022/07/07 08:22:12;;;;;;;;;;;19.80;99.90;;;;;;5027446;28;19929;-82
2022/07/07 08:24:38;;;;;;;;;;;19.30;99.90;;;;;;4995450;28;19947;-83
2022/07/07 08:27:04;;;;;;;;;;;19.60;99.90;;;;;;5026564;28;19925;-85
2022/07/07 08:29:29;;;;;;;;;;;19.70;99.90;;;;;;5021052;28;19986;-82
2022/07/07 08:31:57;;;;;;;;;;;20.30;99.90;;;;;;5018787;28;20207;-83
2022/07/07 08:34:23;;;;;;;;;;;20.20;99.90;;;;;;5019135;28;21152;-83
2022/07/07 08:36:49;;;;;;;;;;;20.40;99.90;;;;;;4999370;28;20037;-82
2022/07/07 08:39:14;;;;;;;;;;;20.60;99.90;;;;;;5026253;28;19929;-82
2022/07/07 08:41:41;;;;;;;;;;;20.50;99.90;;;;;;5028123;28;20285;-83
2022/07/07 08:44:06;;;;;;;;;;;20.10;99.90;;;;;;5024764;28;19940;-82
2022/07/07 08:46:32;;;;;;;;;;;19.70;99.90;;;;;;5021877;28;19929;-85
2022/07/07 08:48:58;;;;;;;;;;;19.00;99.90;;;;;;5023398;28;20039;-83
2022/07/07 08:51:25;;;;;;;;;;;18.70;99.90;;;;;;5020110;28;19990;-83
2022/07/07 08:53:51;;;;;;;;;;;18.70;99.90;;;;;;5022656;28;19983;-81
2022/07/07 08:56:18;;;;;;;;;;;18.70;99.90;;;;;;5028787;28;20213;-81
2022/07/07 08:58:44;;;;;;;;;;;18.70;99.90;;;;;;5025377;28;19944;-84
2022/07/07 09:01:09;;;;;;;;;;;19.00;99.90;;;;;;5027408;28;20028;-86
2022/07/07 09:03:35;;;;;;;;;;;19.10;99.90;;;;;;5026822;28;20359;-84
2022/07/07 09:06:02;;;;;;;;;;;18.90;99.90;;;;;;5008685;28;19928;-84
2022/07/07 09:08:29;;;;;;;;;;;19.20;99.90;;;;;;5022654;28;19940;-82
2022/07/07 09:10:56;;;;;;;;;;;19.20;99.90;;;;;;5020372;28;19955;-85
2022/07/07 09:13:36;;;;;;;;;;;19.80;99.90;;;;;;5028335;28;19924;-83
2022/07/07 09:16:12;;;;;;;;;;;20.20;99.90;;;;;;5006673;28;19933;-86
2022/07/07 09:18:39;;;;;;;;;;;20.10;99.90;;;;;;5022259;28;19979;-84
2022/07/07 09:21:28;;;;;;;;;;;20.30;99.90;;;;;;4999775;28;19940;-81
2022/07/07 09:23:55;;;;;;;;;;;20.10;99.90;;;;;;5033526;28;19933;-85
2022/07/07 09:26:40;;;;;;;;;;;20.10;99.90;;;;;;5002531;28;19929;-84
2022/07/07 09:29:07;;;;;;;;;;;20.30;99.90;;;;;;5012419;28;19932;-85
2022/07/07 09:31:51;;;;;;;;;;;20.10;99.90;;;;;;5027219;28;20364;-83
2022/07/07 09:34:18;;;;;;;;;;;19.80;99.90;;;;;;4999934;28;19937;-84
2022/07/07 09:39:38;;;;;;;;;;;20.00;99.90;;;;;;5025773;28;19935;-84
2022/07/07 09:42:23;;;;;;;;;;;20.10;99.90;;;;;;5019640;28;20016;-86
2022/07/07 09:44:51;;;;;;;;;;;20.50;99.90;;;;;;5020207;28;20044;-84
2022/07/07 09:47:17;;;;;;;;;;;20.60;99.90;;;;;;5024837;28;19933;-82
2022/07/07 09:49:43;;;;;;;;;;;20.80;99.90;;;;;;5022636;28;20091;-84
2022/07/07 09:52:16;;;;;;;;;;;20.70;99.90;;;;;;5025727;28;19929;-85
2022/07/07 09:54:45;;;;;;;;;;;21.00;99.90;;;;;;5024786;28;20034;-81
2022/07/07 09:57:11;;;;;;;;;;;20.90;99.90;;;;;;5018835;28;19976;-86
2022/07/07 09:59:36;;;;;;;;;;;20.70;99.90;;;;;;5016739;28;20114;-83
2022/07/07 10:02:02;;;;;;;;;;;20.90;99.90;;;;;;5017306;28;19929;-84
2022/07/07 10:04:28;;;;;;;;;;;20.30;99.90;;;;;;5023257;28;20027;-85
2022/07/07 10:06:54;;;;;;;;;;;20.40;99.90;;;;;;5020505;28;20402;-83
2022/07/07 10:09:21;;;;;;;;;;;19.90;99.90;;;;;;5019675;28;19937;-87
2022/07/07 10:11:49;;;;;;;;;;;20.10;99.90;;;;;;4979127;28;19933;-82
2022/07/07 10:14:16;;;;;;;;;;;19.90;99.90;;;;;;5005580;28;20740;-85
2022/07/07 10:16:43;;;;;;;;;;;19.90;99.90;;;;;;5018737;28;20016;-85
2022/07/07 10:19:10;;;;;;;;;;;19.60;99.90;;;;;;5016673;28;19929;-85
2022/07/07 10:21:39;;;;;;;;;;;19.20;99.90;;;;;;4998978;28;19944;-84
2022/07/07 10:24:05;;;;;;;;;;;19.10;99.90;;;;;;5017003;28;19925;-84
2022/07/07 10:26:35;;;;;;;;;;;19.30;99.90;;;;;;5023291;28;19929;-83
2022/07/07 10:29:01;;;;;;;;;;;19.50;99.90;;;;;;5024561;28;20549;-84
2022/07/07 10:31:28;;;;;;;;;;;19.60;99.90;;;;;;5025583;28;19935;-84
2022/07/07 10:34:02;;;;;;;;;;;19.90;99.90;;;;;;5018960;28;20024;-88
2022/07/07 10:36:47;;;;;;;;;;;20.10;99.90;;;;;;5019384;28;19983;-86
2022/07/07 10:39:22;;;;;;;;;;;20.10;99.90;;;;;;5024933;28;19933;-83
2022/07/07 10:42:11;;;;;;;;;;;20.80;99.90;;;;;;5020876;28;20658;-84
2022/07/07 10:44:37;;;;;;;;;;;21.40;99.90;;;;;;5005626;28;20004;-84
2022/07/07 10:47:12;;;;;;;;;;;21.00;99.90;;;;;;5019513;28;20362;-85
2022/07/07 10:49:38;;;;;;;;;;;20.70;99.90;;;;;;5017426;28;19933;-84
2022/07/07 10:52:11;;;;;;;;;;;20.50;99.90;;;;;;5016347;28;19936;-86
2022/07/07 10:54:38;;;;;;;;;;;20.60;99.90;;;;;;5022707;28;19929;-83
2022/07/07 10:57:05;;;;;;;;;;;20.30;99.90;;;;;;5023704;28;20447;-83
2022/07/07 10:59:50;;;;;;;;;;;19.90;99.90;;;;;;5023276;28;20427;-86
2022/07/07 11:02:16;;;;;;;;;;;19.90;99.90;;;;;;5022250;28;19929;-82
2022/07/07 11:04:42;;;;;;;;;;;19.70;99.90;;;;;;5020724;28;19940;-85
2022/07/07 11:07:14;;;;;;;;;;;19.50;99.90;;;;;;5012945;28;20792;-85
2022/07/07 11:09:56;;;;;;;;;;;19.40;99.90;;;;;;5018869;28;20819;-83
2022/07/07 11:12:43;;;;;;;;;;;19.40;99.90;;;;;;5021794;28;19929;-86
2022/07/07 11:15:15;;;;;;;;;;;19.20;99.90;;;;;;5014996;28;20039;-85
2022/07/07 11:17:48;;;;;;;;;;;19.40;99.90;;;;;;5022132;28;20045;-83
2022/07/07 11:20:14;;;;;;;;;;;19.70;99.90;;;;;;5016529;28;19978;-83
2022/07/07 11:23:06;;;;;;;;;;;19.60;99.90;;;;;;5017979;28;19961;-84
2022/07/07 11:25:32;;;;;;;;;;;19.70;99.90;;;;;;5019483;28;20008;-84
2022/07/07 11:27:58;;;;;;;;;;;20.10;99.90;;;;;;5018032;28;20006;-86
2022/07/07 11:30:24;;;;;;;;;;;20.10;99.90;;;;;;5016760;28;19929;-85
2022/07/07 11:32:50;;;;;;;;;;;20.20;99.90;;;;;;5022641;28;19944;-87
2022/07/07 11:35:15;;;;;;;;;;;19.80;99.90;;;;;;5021225;28;19964;-85
2022/07/07 11:37:43;;;;;;;;;;;19.20;99.90;;;;;;4998905;28;20074;-85
2022/07/07 11:40:15;;;;;;;;;;;19.10;99.90;;;;;;5022253;28;19959;-85
2022/07/07 11:42:41;;;;;;;;;;;19.10;99.90;;;;;;4998877;28;19929;-83
2022/07/07 11:45:19;;;;;;;;;;;19.30;99.90;;;;;;5025692;28;19951;-84
2022/07/07 11:47:46;;;;;;;;;;;19.10;99.90;;;;;;4982633;28;19956;-83
2022/07/07 11:50:11;;;;;;;;;;;18.70;99.90;;;;;;5026032;28;20374;-82
2022/07/07 11:52:37;;;;;;;;;;;18.80;99.90;;;;;;5010009;28;19929;-85
2022/07/07 11:55:04;;;;;;;;;;;18.90;99.90;;;;;;4974664;28;19929;-84
2022/07/07 11:57:31;;;;;;;;;;;19.00;99.90;;;;;;5003745;28;19940;-84
2022/07/07 12:00:07;;;;;;;;;;;18.90;99.90;;;;;;5003282;28;19960;-86
2022/07/07 12:02:33;;;;;;;;;;;19.30;99.90;;;;;;5009772;28;20313;-84
2022/07/07 12:04:59;;;;;;;;;;;19.20;99.90;;;;;;4993266;28;19929;-84
2022/07/07 12:07:25;;;;;;;;;;;19.20;99.90;;;;;;5007748;28;20012;-86
2022/07/07 12:09:50;;;;;;;;;;;19.20;99.90;;;;;;4989029;28;20377;-84
2022/07/07 12:12:17;;;;;;;;;;;19.00;99.90;;;;;;5015739;28;20554;-84
2022/07/07 12:14:43;;;;;;;;;;;18.90;99.90;;;;;;5005689;28;19940;-83
2022/07/07 12:17:09;;;;;;;;;;;18.70;99.90;;;;;;4995673;28;19929;-84
2022/07/07 12:19:55;;;;;;;;;;;18.90;99.90;;;;;;5008384;28;19929;-87
2022/07/07 12:22:34;;;;;;;;;;;18.90;99.90;;;;;;5010461;28;20154;-84
2022/07/07 12:25:04;;;;;;;;;;;18.90;99.90;;;;;;5008734;28;19929;-86
2022/07/07 12:27:30;;;;;;;;;;;18.90;99.90;;;;;;5010007;28;19991;-86
2022/07/07 12:30:00;;;;;;;;;;;18.70;99.90;;;;;;5008651;28;19975;-81
2022/07/07 12:32:25;;;;;;;;;;;18.20;99.90;;;;;;5011074;28;19928;-83
2022/07/07 12:34:51;;;;;;;;;;;18.60;99.90;;;;;;5012385;28;19983;-82
2022/07/07 12:37:17;;;;;;;;;;;18.70;99.90;;;;;;5010046;28;19929;-85
2022/07/07 12:39:43;;;;;;;;;;;18.80;99.90;;;;;;5009189;28;20412;-83
2022/07/07 12:42:09;;;;;;;;;;;19.10;99.90;;;;;;5013621;28;19929;-80
2022/07/07 12:44:35;;;;;;;;;;;18.90;99.90;;;;;;5018318;28;19929;-85
2022/07/07 12:47:01;;;;;;;;;;;18.90;99.90;;;;;;5007382;28;20445;-82
2022/07/07 12:49:28;;;;;;;;;;;19.20;99.90;;;;;;5024728;28;19981;-83
2022/07/07 12:51:55;;;;;;;;;;;19.40;99.90;;;;;;5024377;28;19929;-80
2022/07/07 12:54:22;;;;;;;;;;;19.30;99.90;;;;;;5023941;28;19932;-86
2022/07/07 12:56:56;;;;;;;;;;;19.60;99.90;;;;;;5020451;28;19929;-84
2022/07/07 12:59:22;;;;;;;;;;;19.60;99.90;;;;;;5005086;28;19929;-83
2022/07/07 13:01:52;;;;;;;;;;;19.70;99.90;;;;;;5025363;28;20220;-85
2022/07/07 13:04:19;;;;;;;;;;;19.10;99.90;;;;;;5018798;28;19933;-84
2022/07/07 13:06:45;;;;;;;;;;;19.20;99.90;;;;;;5020820;28;20066;-81
2022/07/07 13:09:11;;;;;;;;;;;18.90;99.90;;;;;;5017850;28;19955;-84
2022/07/07 13:11:37;;;;;;;;;;;19.30;99.90;;;;;;5003555;28;20710;-84
2022/07/07 13:14:03;;;;;;;;;;;19.00;99.90;;;;;;5010789;28;19929;-86
2022/07/07 13:16:28;;;;;;;;;;;19.10;99.90;;;;;;4990802;28;19955;-82
2022/07/07 13:18:54;;;;;;;;;;;19.20;99.90;;;;;;5010231;28;20628;-84
2022/07/07 13:21:20;;;;;;;;;;;19.00;99.90;;;;;;5009860;28;20286;-86
2022/07/07 13:23:45;;;;;;;;;;;19.00;99.90;;;;;;5007259;28;20467;-84
2022/07/07 13:26:12;;;;;;;;;;;19.20;99.90;;;;;;5009374;28;19943;-83
2022/07/07 13:28:38;;;;;;;;;;;19.20;99.90;;;;;;5006910;28;19936;-83
2022/07/07 13:31:03;;;;;;;;;;;19.30;99.90;;;;;;5005672;28;19937;-83
2022/07/07 13:33:29;;;;;;;;;;;19.20;99.90;;;;;;5004687;28;19937;-84
2022/07/07 13:35:56;;;;;;;;;;;19.00;99.90;;;;;;5005089;28;20341;-84
2022/07/07 13:38:21;;;;;;;;;;;18.90;99.90;;;;;;5012282;28;19932;-81
2022/07/07 13:40:47;;;;;;;;;;;18.70;99.90;;;;;;5007577;28;19936;-84
2022/07/07 13:43:13;;;;;;;;;;;18.40;99.90;;;;;;5012642;28;20015;-86
2022/07/07 13:45:39;;;;;;;;;;;18.20;99.90;;;;;;5010639;28;19936;-83
2022/07/07 13:48:04;;;;;;;;;;;18.50;99.90;;;;;;5008551;28;19936;-84
2022/07/07 13:50:30;;;;;;;;;;;18.60;99.90;;;;;;5012308;28;19986;-82
2022/07/07 13:52:56;;;;;;;;;;;18.80;99.90;;;;;;5010814;28;20374;-84
2022/07/07 13:55:22;;;;;;;;;;;18.90;99.90;;;;;;5010561;28;20719;-83
2022/07/07 13:57:47;;;;;;;;;;;19.00;99.90;;;;;;5008013;28;19929;-81
2022/07/07 14:00:13;;;;;;;;;;;19.10;99.90;;;;;;5005388;28;19925;-84
2022/07/07 14:02:40;;;;;;;;;;;18.90;99.90;;;;;;5009801;28;20499;-83
2022/07/07 14:05:06;;;;;;;;;;;19.00;99.90;;;;;;5014160;28;19928;-84
2022/07/07 14:07:31;;;;;;;;;;;19.00;99.90;;;;;;4997403;28;19998;-85
2022/07/07 14:09:59;;;;;;;;;;;19.10;99.90;;;;;;5003980;28;19928;-84
2022/07/07 14:12:27;;;;;;;;;;;19.00;99.90;;;;;;5004637;28;19929;-84
2022/07/07 14:14:53;;;;;;;;;;;19.00;99.90;;;;;;5000940;28;19929;-83
2022/07/07 14:17:19;;;;;;;;;;;18.60;99.90;;;;;;4998814;28;19932;-85
2022/07/07 14:19:45;;;;;;;;;;;18.50;99.90;;;;;;5000632;28;19990;-86
2022/07/07 14:22:12;;;;;;;;;;;18.60;99.90;;;;;;4982635;28;20314;-84